F/V Harvestor — WDC8229 — position and weather

sailwx.info

Track history (hours):
 
Tides and Currents Weather Stations Pressure Air Temp Water Temp Dewpoint Dewpoint Depression Visibility Wind Speed Wind Dir Waves Ship Positions

F/V Harvestor

Owner: F/V HARVESTOR INC., EDMONDS, WA. More information available from US FCC via Universal Licensing System and Coast Guard Vessel Documentation Center.

Last reported at 2015-Aug-30 11:27 UTC. Time now 2015-Aug-30 15:58 UTC.
Position N 48°34' W 122°41'.

Length 40 m.

Type: Fishing. MMSI: 367083650.

Date/timePositionNaut miles runAvg speedWind from/ knotsBaromVisibWave heightAir tempDewpointWater temp
2015-Aug-30 11:27N 48°34' W 122°41'4 4.8
2015-Aug-30 10:33N 48°32' W 122°35'6 6.3
2015-Aug-30 09:32N 48°26' W 122°30'39 6.6
2015-Aug-30 03:34N 47°47' W 122°25'9 8.8
2015-Aug-30 02:33N 47°38' W 122°25'1 1.1
2015-Aug-30 01:33N 47°38' W 122°23'0 0.0
2015-Aug-30 00:33N 47°38' W 122°23'0 0.0
2015-Aug-29 23:33N 47°38' W 122°23'0 0.0
2015-Aug-29 22:33N 47°38' W 122°23'0 0.0
2015-Aug-29 21:33N 47°38' W 122°23'0 0.0
2015-Aug-29 20:33N 47°38' W 122°23'0 0.0
2015-Aug-29 19:33N 47°38' W 122°23'0 0.0
2015-Aug-29 18:33N 47°38' W 122°23'0 0.0
2015-Aug-29 17:34N 47°38' W 122°23'0 0.0
2015-Aug-29 16:33N 47°38' W 122°23'0 0.0
2015-Aug-29 15:33N 47°38' W 122°23'0 0.0
2015-Aug-29 14:33N 47°38' W 122°23'0 0.0
2015-Aug-29 13:33N 47°38' W 122°23'0 0.0
2015-Aug-29 12:33N 47°38' W 122°23'0 0.0
2015-Aug-29 11:34N 47°38' W 122°23'0 0.0
2015-Aug-29 10:33N 47°38' W 122°23'0 0.0
2015-Aug-29 09:34N 47°38' W 122°23'0 0.0
2015-Aug-29 08:33N 47°38' W 122°23'0 0.0
2015-Aug-29 07:33N 47°38' W 122°23'0 0.0
2015-Aug-29 06:34N 47°38' W 122°23'0 0.0
2015-Aug-29 05:34N 47°38' W 122°23'0 0.0
2015-Aug-29 04:34N 47°38' W 122°23'0 0.0
2015-Aug-29 03:33N 47°38' W 122°23'0 0.0
2015-Aug-29 02:33N 47°38' W 122°23'0 0.0
2015-Aug-29 01:34N 47°38' W 122°23'0 0.0
2015-Aug-29 00:33N 47°38' W 122°23'0 0.0
2015-Aug-28 23:33N 47°38' W 122°23'0 0.0
2015-Aug-28 22:33N 47°38' W 122°23'0 0.0
2015-Aug-28 21:33N 47°38' W 122°23'0 0.0
2015-Aug-28 20:34N 47°38' W 122°23'0 0.0
2015-Aug-28 19:33N 47°38' W 122°23'0 0.0
2015-Aug-28 18:33N 47°38' W 122°23'0 0.0
2015-Aug-28 17:34N 47°38' W 122°23'0 0.0
2015-Aug-28 16:33N 47°38' W 122°23'0 0.0
2015-Aug-28 15:33N 47°38' W 122°23'0 0.0
2015-Aug-28 14:33N 47°38' W 122°23'0 0.0
2015-Aug-28 13:33N 47°38' W 122°23'0 0.0
2015-Aug-28 12:33N 47°38' W 122°23'0 0.0
2015-Aug-28 11:33N 47°38' W 122°23'0 0.0
2015-Aug-28 10:33N 47°38' W 122°23'0 0.0
2015-Aug-28 09:34N 47°38' W 122°23'0 0.0
2015-Aug-28 08:33N 47°38' W 122°23'1 1.3
2015-Aug-28 07:33N 47°38' W 122°25'8 7.8
2015-Aug-28 06:33N 47°46' W 122°28'8 8.2
2015-Aug-28 05:33N 47°54' W 122°30'7 7.2
2015-Aug-28 04:33N 47°59' W 122°37'7 6.6
2015-Aug-28 03:33N 48°05' W 122°40'13 6.5
2015-Aug-28 01:30N 48°18' W 122°48'8 8.6
2015-Aug-28 00:32N 48°26' W 122°45'7 7.0
2015-Aug-27 23:34N 48°32' W 122°41'1 1.4
2015-Aug-27 22:34N 48°34' W 122°41'0 0.0
2015-Aug-27 21:33N 48°34' W 122°41'0 0.0
2015-Aug-27 20:34N 48°34' W 122°41'0 0.0
2015-Aug-27 19:34N 48°34' W 122°41'0 0.4
2015-Aug-27 18:34N 48°33' W 122°41'0 0.4
2015-Aug-27 17:33N 48°34' W 122°41'0 0.0
2015-Aug-27 16:33N 48°34' W 122°41'0 0.0
2015-Aug-27 15:33N 48°34' W 122°41'0 0.0
2015-Aug-27 14:33N 48°34' W 122°41'0 0.0
2015-Aug-27 13:33N 48°34' W 122°41'0 0.0
2015-Aug-27 12:34N 48°34' W 122°41'0 0.0
2015-Aug-27 11:32N 48°34' W 122°41'0 0.0
2015-Aug-27 10:33N 48°34' W 122°41'0 0.0
2015-Aug-27 09:31N 48°34' W 122°41'0 0.0
2015-Aug-27 08:33N 48°34' W 122°41'0 0.0
2015-Aug-27 07:33N 48°34' W 122°41'0 0.0
2015-Aug-27 06:33N 48°34' W 122°41'0 0.0
2015-Aug-27 05:33N 48°34' W 122°41'0 0.0
2015-Aug-27 04:21N 48°34' W 122°41'0 0.0
2015-Aug-27 03:33N 48°34' W 122°41'1 0.8
2015-Aug-27 02:34N 48°33' W 122°41'7 7.3
2015-Aug-27 01:33N 48°26' W 122°44'9 8.2
2015-Aug-27 00:28N 48°17' W 122°47'17 7.6
2015-Aug-26 22:12N 48°01' W 122°37'5 7.6
2015-Aug-26 21:33N 47°57' W 122°32'8 7.7
2015-Aug-26 20:33N 47°50' W 122°27'8 8.1
2015-Aug-26 19:34N 47°42' W 122°26'5 5.0
2015-Aug-26 18:33N 47°38' W 122°23'0 0.0
2015-Aug-26 17:33N 47°38' W 122°23'0 0.0
2015-Aug-26 16:33N 47°38' W 122°23'0 0.0
2015-Aug-26 15:33N 47°38' W 122°23'0 0.0
2015-Aug-26 14:33N 47°38' W 122°23'0 0.0
2015-Aug-26 13:33N 47°38' W 122°23'0 0.0
2015-Aug-26 12:33N 47°38' W 122°23'0 0.0
2015-Aug-26 11:33N 47°38' W 122°23'0 0.0
2015-Aug-26 10:33N 47°38' W 122°23'0 0.0
2015-Aug-26 09:33N 47°38' W 122°23'1 1.1
2015-Aug-26 08:33N 47°38' W 122°25'8 7.6
2015-Aug-26 07:33N 47°45' W 122°27'8 8.5
2015-Aug-26 06:33N 47°53' W 122°30'8 8.3
2015-Aug-26 05:33N 47°60' W 122°37'9 8.2
2015-Aug-26 04:31N 48°08' W 122°42'9 7.8
2015-Aug-26 03:23N 48°16' W 122°46'7 8.8
2015-Aug-26 02:33N 48°23' W 122°43'9 8.8
2015-Aug-26 01:33N 48°32' W 122°41'2 1.7
2015-Aug-26 00:33N 48°34' W 122°41'0 0.0
2015-Aug-25 23:34N 48°34' W 122°41'0 0.0
2015-Aug-25 22:33N 48°34' W 122°41'0 0.0
2015-Aug-25 21:33N 48°34' W 122°41'0 0.0
2015-Aug-25 20:22N 48°34' W 122°41'0 0.0
2015-Aug-25 19:33N 48°34' W 122°41'0 0.0
2015-Aug-25 18:33N 48°34' W 122°41'0 0.0
2015-Aug-25 17:33N 48°34' W 122°41'0 0.0
2015-Aug-25 16:32N 48°34' W 122°41'0 0.0
2015-Aug-25 15:34N 48°34' W 122°41'0 0.0
2015-Aug-25 14:33N 48°34' W 122°41'0 0.0
2015-Aug-25 13:34N 48°34' W 122°41'0 0.0
2015-Aug-25 12:33N 48°34' W 122°41'0 0.0
2015-Aug-25 11:32N 48°34' W 122°41'0 0.0
2015-Aug-25 10:34N 48°34' W 122°41'0 0.0
2015-Aug-25 09:33N 48°34' W 122°41'0 0.0
2015-Aug-25 08:33N 48°34' W 122°41'0 0.0
2015-Aug-25 07:33N 48°34' W 122°41'0 0.0
2015-Aug-25 06:33N 48°34' W 122°41'0 0.0
2015-Aug-25 05:33N 48°34' W 122°41'0 0.0
2015-Aug-25 04:34N 48°34' W 122°41'0 0.0
2015-Aug-25 03:33N 48°34' W 122°41'4 4.2
2015-Aug-25 02:33N 48°30' W 122°43'8 8.1
2015-Aug-25 01:33N 48°22' W 122°45'25 8.3
2015-Aug-24 22:33N 47°58' W 122°34'9 8.6
2015-Aug-24 21:33N 47°51' W 122°27'9 8.5
2015-Aug-24 20:33N 47°42' W 122°26'5 4.6
2015-Aug-24 19:34N 47°38' W 122°23'0 0.0
2015-Aug-24 18:33N 47°38' W 122°23'0 0.0
2015-Aug-24 17:33N 47°38' W 122°23'0 0.0
2015-Aug-24 16:33N 47°38' W 122°23'0 0.0
2015-Aug-24 15:34N 47°38' W 122°23'0 0.0
2015-Aug-24 14:33N 47°38' W 122°23'0 0.0
2015-Aug-24 13:33N 47°38' W 122°23'0 0.0
2015-Aug-24 12:34N 47°38' W 122°23'0 0.0
2015-Aug-24 11:34N 47°38' W 122°23'0 0.0
2015-Aug-24 10:33N 47°38' W 122°23'0 0.0
2015-Aug-24 09:33N 47°38' W 122°23'0 0.0
2015-Aug-24 08:34N 47°38' W 122°23'0 0.0
2015-Aug-24 07:33N 47°38' W 122°23'2 1.7
2015-Aug-24 06:33N 47°38' W 122°25'8 8.2
2015-Aug-24 05:33N 47°47' W 122°25'9 9.1
2015-Aug-24 04:33N 47°55' W 122°21'9 8.5
2015-Aug-24 03:32N 48°04' W 122°25'9 8.9
2015-Aug-24 02:31N 48°11' W 122°33'8 8.4
2015-Aug-24 01:34N 48°19' W 122°30'8 7.8
2015-Aug-24 00:33N 48°24' W 122°39'7 7.4
2015-Aug-23 23:34N 48°31' W 122°42'2 1.8
2015-Aug-23 22:33N 48°33' W 122°41'0 0.0
2015-Aug-23 20:31N 48°33' W 122°41'0 0.0
2015-Aug-23 19:33N 48°33' W 122°41'0 0.0
2015-Aug-23 18:34N 48°33' W 122°41'0 0.0
2015-Aug-23 17:31N 48°33' W 122°41'0 0.0
2015-Aug-23 16:30N 48°33' W 122°41'0 0.0
2015-Aug-23 15:34N 48°33' W 122°41'0 0.0
2015-Aug-23 14:33N 48°33' W 122°41'0 0.0
2015-Aug-23 13:33N 48°33' W 122°41'0 0.0
2015-Aug-23 12:33N 48°33' W 122°41'0 0.0
2015-Aug-23 11:33N 48°33' W 122°41'0 0.0
2015-Aug-23 10:33N 48°33' W 122°41'0 0.0
2015-Aug-23 09:34N 48°33' W 122°41'0 0.0
2015-Aug-23 08:33N 48°33' W 122°41'0 0.0
2015-Aug-23 07:33N 48°33' W 122°41'0 0.0
2015-Aug-23 06:32N 48°33' W 122°41'0 0.0
2015-Aug-23 05:33N 48°33' W 122°41'0 0.0
2015-Aug-23 04:33N 48°33' W 122°41'0 0.0
2015-Aug-23 03:34N 48°33' W 122°41'0 0.1
2015-Aug-23 02:33N 48°33' W 122°41'7 7.3
2015-Aug-23 01:34N 48°26' W 122°44'15 7.7
2015-Aug-22 23:33N 48°11' W 122°45'10 9.1
2015-Aug-22 22:25N 48°02' W 122°37'8 9.5
2015-Aug-22 21:34N 47°56' W 122°29'9 9.3
2015-Aug-22 20:34N 47°47' W 122°26'9 8.5
2015-Aug-22 19:33N 47°38' W 122°25'2 1.5
2015-Aug-22 18:33N 47°38' W 122°23'0 0.0
2015-Aug-22 17:33N 47°38' W 122°23'0 0.0
2015-Aug-22 16:33N 47°38' W 122°23'0 0.0
2015-Aug-22 15:34N 47°38' W 122°23'0 0.0
2015-Aug-22 14:33N 47°38' W 122°23'0 0.0
2015-Aug-22 13:33N 47°38' W 122°23'0 0.0
2015-Aug-22 12:33N 47°38' W 122°23'0 0.0
2015-Aug-22 11:34N 47°38' W 122°23'0 0.0
2015-Aug-22 10:33N 47°38' W 122°23'0 0.0
2015-Aug-22 09:34N 47°38' W 122°23'0 0.0
2015-Aug-22 08:34N 47°38' W 122°23'0 0.0
2015-Aug-22 07:33N 47°38' W 122°23'0 0.0
2015-Aug-22 06:33N 47°38' W 122°23'0 0.0
2015-Aug-22 05:34N 47°38' W 122°23'0 0.0
2015-Aug-22 04:34N 47°38' W 122°23'0 0.0
2015-Aug-22 03:33N 47°38' W 122°23'0 0.0
2015-Aug-22 02:33N 47°38' W 122°23'0 0.0
2015-Aug-22 01:34N 47°38' W 122°23'0 0.0
2015-Aug-22 00:34N 47°38' W 122°23'0 0.0
2015-Aug-21 23:33N 47°38' W 122°23'0 0.0
2015-Aug-21 22:33N 47°38' W 122°23'0 0.0
2015-Aug-21 21:33N 47°38' W 122°23'0 0.0
2015-Aug-21 20:33N 47°38' W 122°23'0 0.0
2015-Aug-21 19:33N 47°38' W 122°23'0 0.0
2015-Aug-21 18:34N 47°38' W 122°23'0 0.0
2015-Aug-21 17:33N 47°38' W 122°23'0 0.0
2015-Aug-21 16:33N 47°38' W 122°23'0 0.0
2015-Aug-21 15:33N 47°38' W 122°23'0 0.0
2015-Aug-21 14:33N 47°38' W 122°23'0 0.0
2015-Aug-21 13:34N 47°38' W 122°23'0 0.0
2015-Aug-21 12:33N 47°38' W 122°23'0 0.0
2015-Aug-21 11:33N 47°38' W 122°23'0 0.0
2015-Aug-21 10:34N 47°38' W 122°23'0 0.0
2015-Aug-21 09:33N 47°38' W 122°23'0 0.0
2015-Aug-21 08:34N 47°38' W 122°23'0 0.0
2015-Aug-21 07:33N 47°38' W 122°23'5 4.8
2015-Aug-21 06:33N 47°42' W 122°26'8 7.8
2015-Aug-21 05:33N 47°50' W 122°24'8 8.3
2015-Aug-21 04:33N 47°58' W 122°20'8 8.4
2015-Aug-21 03:33N 48°05' W 122°27'14 7.2
2015-Aug-21 01:33N 48°19' W 122°31'9 7.8
2015-Aug-21 00:26N 48°25' W 122°41'7 7.7
2015-Aug-20 23:34N 48°32' W 122°41'1 1.5
2015-Aug-20 22:34N 48°33' W 122°41'0 0.0
2015-Aug-20 21:33N 48°33' W 122°41'0 0.0
2015-Aug-20 20:33N 48°33' W 122°41'0 0.0
2015-Aug-20 19:33N 48°33' W 122°41'0 0.0
2015-Aug-20 18:33N 48°33' W 122°41'0 0.0
2015-Aug-20 17:34N 48°33' W 122°41'0 0.0
2015-Aug-20 16:33N 48°33' W 122°41'0 0.0
2015-Aug-20 15:34N 48°33' W 122°41'0 0.0
2015-Aug-20 14:34N 48°33' W 122°41'0 0.0
2015-Aug-20 13:33N 48°33' W 122°41'0 0.0
2015-Aug-20 12:34N 48°33' W 122°41'0 0.0
2015-Aug-20 11:33N 48°33' W 122°41'  
Track history (hours):
 
Tides and Currents Weather Stations Pressure Air Temp Water Temp Dewpoint Dewpoint Depression Visibility Wind Speed Wind Dir Waves Ship Positions

F/V Harvestor

Owner: F/V HARVESTOR INC., EDMONDS, WA. More information available from US FCC via Universal Licensing System and Coast Guard Vessel Documentation Center.

Last reported at 2015-Aug-30 11:27 UTC. Time now 2015-Aug-30 15:58 UTC.
Position N 48°34' W 122°41'.

Length 40 m.

Type: Fishing. MMSI: 367083650.

Date/timePositionNaut miles runAvg speedWind from/ knotsBaromVisibWave heightAir tempDewpointWater temp
2015-Aug-30 11:27N 48°34' W 122°41'4 4.8
2015-Aug-30 10:33N 48°32' W 122°35'6 6.3
2015-Aug-30 09:32N 48°26' W 122°30'39 6.6
2015-Aug-30 03:34N 47°47' W 122°25'9 8.8
2015-Aug-30 02:33N 47°38' W 122°25'1 1.1
2015-Aug-30 01:33N 47°38' W 122°23'0 0.0
2015-Aug-30 00:33N 47°38' W 122°23'0 0.0
2015-Aug-29 23:33N 47°38' W 122°23'0 0.0
2015-Aug-29 22:33N 47°38' W 122°23'0 0.0
2015-Aug-29 21:33N 47°38' W 122°23'0 0.0
2015-Aug-29 20:33N 47°38' W 122°23'0 0.0
2015-Aug-29 19:33N 47°38' W 122°23'0 0.0
2015-Aug-29 18:33N 47°38' W 122°23'0 0.0
2015-Aug-29 17:34N 47°38' W 122°23'0 0.0
2015-Aug-29 16:33N 47°38' W 122°23'0 0.0
2015-Aug-29 15:33N 47°38' W 122°23'0 0.0
2015-Aug-29 14:33N 47°38' W 122°23'0 0.0
2015-Aug-29 13:33N 47°38' W 122°23'0 0.0
2015-Aug-29 12:33N 47°38' W 122°23'0 0.0
2015-Aug-29 11:34N 47°38' W 122°23'0 0.0
2015-Aug-29 10:33N 47°38' W 122°23'0 0.0
2015-Aug-29 09:34N 47°38' W 122°23'0 0.0
2015-Aug-29 08:33N 47°38' W 122°23'0 0.0
2015-Aug-29 07:33N 47°38' W 122°23'0 0.0
2015-Aug-29 06:34N 47°38' W 122°23'0 0.0
2015-Aug-29 05:34N 47°38' W 122°23'0 0.0
2015-Aug-29 04:34N 47°38' W 122°23'0 0.0
2015-Aug-29 03:33N 47°38' W 122°23'0 0.0
2015-Aug-29 02:33N 47°38' W 122°23'0 0.0
2015-Aug-29 01:34N 47°38' W 122°23'0 0.0
2015-Aug-29 00:33N 47°38' W 122°23'0 0.0
2015-Aug-28 23:33N 47°38' W 122°23'0 0.0
2015-Aug-28 22:33N 47°38' W 122°23'0 0.0
2015-Aug-28 21:33N 47°38' W 122°23'0 0.0
2015-Aug-28 20:34N 47°38' W 122°23'0 0.0
2015-Aug-28 19:33N 47°38' W 122°23'0 0.0
2015-Aug-28 18:33N 47°38' W 122°23'0 0.0
2015-Aug-28 17:34N 47°38' W 122°23'0 0.0
2015-Aug-28 16:33N 47°38' W 122°23'0 0.0
2015-Aug-28 15:33N 47°38' W 122°23'0 0.0
2015-Aug-28 14:33N 47°38' W 122°23'0 0.0
2015-Aug-28 13:33N 47°38' W 122°23'0 0.0
2015-Aug-28 12:33N 47°38' W 122°23'0 0.0
2015-Aug-28 11:33N 47°38' W 122°23'0 0.0
2015-Aug-28 10:33N 47°38' W 122°23'0 0.0
2015-Aug-28 09:34N 47°38' W 122°23'0 0.0
2015-Aug-28 08:33N 47°38' W 122°23'1 1.3
2015-Aug-28 07:33N 47°38' W 122°25'8 7.8
2015-Aug-28 06:33N 47°46' W 122°28'8 8.2
2015-Aug-28 05:33N 47°54' W 122°30'7 7.2
2015-Aug-28 04:33N 47°59' W 122°37'7 6.6
2015-Aug-28 03:33N 48°05' W 122°40'13 6.5
2015-Aug-28 01:30N 48°18' W 122°48'8 8.6
2015-Aug-28 00:32N 48°26' W 122°45'7 7.0
2015-Aug-27 23:34N 48°32' W 122°41'1 1.4
2015-Aug-27 22:34N 48°34' W 122°41'0 0.0
2015-Aug-27 21:33N 48°34' W 122°41'0 0.0
2015-Aug-27 20:34N 48°34' W 122°41'0 0.0
2015-Aug-27 19:34N 48°34' W 122°41'0 0.4
2015-Aug-27 18:34N 48°33' W 122°41'0 0.4
2015-Aug-27 17:33N 48°34' W 122°41'0 0.0
2015-Aug-27 16:33N 48°34' W 122°41'0 0.0
2015-Aug-27 15:33N 48°34' W 122°41'0 0.0
2015-Aug-27 14:33N 48°34' W 122°41'0 0.0
2015-Aug-27 13:33N 48°34' W 122°41'0 0.0
2015-Aug-27 12:34N 48°34' W 122°41'0 0.0
2015-Aug-27 11:32N 48°34' W 122°41'0 0.0
2015-Aug-27 10:33N 48°34' W 122°41'0 0.0
2015-Aug-27 09:31N 48°34' W 122°41'0 0.0
2015-Aug-27 08:33N 48°34' W 122°41'0 0.0
2015-Aug-27 07:33N 48°34' W 122°41'0 0.0
2015-Aug-27 06:33N 48°34' W 122°41'0 0.0
2015-Aug-27 05:33N 48°34' W 122°41'0 0.0
2015-Aug-27 04:21N 48°34' W 122°41'0 0.0
2015-Aug-27 03:33N 48°34' W 122°41'1 0.8
2015-Aug-27 02:34N 48°33' W 122°41'7 7.3
2015-Aug-27 01:33N 48°26' W 122°44'9 8.2
2015-Aug-27 00:28N 48°17' W 122°47'17 7.6
2015-Aug-26 22:12N 48°01' W 122°37'5 7.6
2015-Aug-26 21:33N 47°57' W 122°32'8 7.7
2015-Aug-26 20:33N 47°50' W 122°27'8 8.1
2015-Aug-26 19:34N 47°42' W 122°26'5 5.0
2015-Aug-26 18:33N 47°38' W 122°23'0 0.0
2015-Aug-26 17:33N 47°38' W 122°23'0 0.0
2015-Aug-26 16:33N 47°38' W 122°23'0 0.0
2015-Aug-26 15:33N 47°38' W 122°23'0 0.0
2015-Aug-26 14:33N 47°38' W 122°23'0 0.0
2015-Aug-26 13:33N 47°38' W 122°23'0 0.0
2015-Aug-26 12:33N 47°38' W 122°23'0 0.0
2015-Aug-26 11:33N 47°38' W 122°23'0 0.0
2015-Aug-26 10:33N 47°38' W 122°23'0 0.0
2015-Aug-26 09:33N 47°38' W 122°23'1 1.1
2015-Aug-26 08:33N 47°38' W 122°25'8 7.6
2015-Aug-26 07:33N 47°45' W 122°27'8 8.5
2015-Aug-26 06:33N 47°53' W 122°30'8 8.3
2015-Aug-26 05:33N 47°60' W 122°37'9 8.2
2015-Aug-26 04:31N 48°08' W 122°42'9 7.8
2015-Aug-26 03:23N 48°16' W 122°46'7 8.8
2015-Aug-26 02:33N 48°23' W 122°43'9 8.8
2015-Aug-26 01:33N 48°32' W 122°41'2 1.7
2015-Aug-26 00:33N 48°34' W 122°41'0 0.0
2015-Aug-25 23:34N 48°34' W 122°41'0 0.0
2015-Aug-25 22:33N 48°34' W 122°41'0 0.0
2015-Aug-25 21:33N 48°34' W 122°41'0 0.0
2015-Aug-25 20:22N 48°34' W 122°41'0 0.0
2015-Aug-25 19:33N 48°34' W 122°41'0 0.0
2015-Aug-25 18:33N 48°34' W 122°41'0 0.0
2015-Aug-25 17:33N 48°34' W 122°41'0 0.0
2015-Aug-25 16:32N 48°34' W 122°41'0 0.0
2015-Aug-25 15:34N 48°34' W 122°41'0 0.0
2015-Aug-25 14:33N 48°34' W 122°41'0 0.0
2015-Aug-25 13:34N 48°34' W 122°41'0 0.0
2015-Aug-25 12:33N 48°34' W 122°41'0 0.0
2015-Aug-25 11:32N 48°34' W 122°41'0 0.0
2015-Aug-25 10:34N 48°34' W 122°41'0 0.0
2015-Aug-25 09:33N 48°34' W 122°41'0 0.0
2015-Aug-25 08:33N 48°34' W 122°41'0 0.0
2015-Aug-25 07:33N 48°34' W 122°41'0 0.0
2015-Aug-25 06:33N 48°34' W 122°41'0 0.0
2015-Aug-25 05:33N 48°34' W 122°41'0 0.0
2015-Aug-25 04:34N 48°34' W 122°41'0 0.0
2015-Aug-25 03:33N 48°34' W 122°41'4 4.2
2015-Aug-25 02:33N 48°30' W 122°43'8 8.1
2015-Aug-25 01:33N 48°22' W 122°45'25 8.3
2015-Aug-24 22:33N 47°58' W 122°34'9 8.6
2015-Aug-24 21:33N 47°51' W 122°27'9 8.5
2015-Aug-24 20:33N 47°42' W 122°26'5 4.6
2015-Aug-24 19:34N 47°38' W 122°23'0 0.0
2015-Aug-24 18:33N 47°38' W 122°23'0 0.0
2015-Aug-24 17:33N 47°38' W 122°23'0 0.0
2015-Aug-24 16:33N 47°38' W 122°23'0 0.0
2015-Aug-24 15:34N 47°38' W 122°23'0 0.0
2015-Aug-24 14:33N 47°38' W 122°23'0 0.0
2015-Aug-24 13:33N 47°38' W 122°23'0 0.0
2015-Aug-24 12:34N 47°38' W 122°23'0 0.0
2015-Aug-24 11:34N 47°38' W 122°23'0 0.0
2015-Aug-24 10:33N 47°38' W 122°23'0 0.0
2015-Aug-24 09:33N 47°38' W 122°23'0 0.0
2015-Aug-24 08:34N 47°38' W 122°23'0 0.0
2015-Aug-24 07:33N 47°38' W 122°23'2 1.7
2015-Aug-24 06:33N 47°38' W 122°25'8 8.2
2015-Aug-24 05:33N 47°47' W 122°25'9 9.1
2015-Aug-24 04:33N 47°55' W 122°21'9 8.5
2015-Aug-24 03:32N 48°04' W 122°25'9 8.9
2015-Aug-24 02:31N 48°11' W 122°33'8 8.4
2015-Aug-24 01:34N 48°19' W 122°30'8 7.8
2015-Aug-24 00:33N 48°24' W 122°39'7 7.4
2015-Aug-23 23:34N 48°31' W 122°42'2 1.8
2015-Aug-23 22:33N 48°33' W 122°41'0 0.0
2015-Aug-23 20:31N 48°33' W 122°41'0 0.0
2015-Aug-23 19:33N 48°33' W 122°41'0 0.0
2015-Aug-23 18:34N 48°33' W 122°41'0 0.0
2015-Aug-23 17:31N 48°33' W 122°41'0 0.0
2015-Aug-23 16:30N 48°33' W 122°41'0 0.0
2015-Aug-23 15:34N 48°33' W 122°41'0 0.0
2015-Aug-23 14:33N 48°33' W 122°41'0 0.0
2015-Aug-23 13:33N 48°33' W 122°41'0 0.0
2015-Aug-23 12:33N 48°33' W 122°41'0 0.0
2015-Aug-23 11:33N 48°33' W 122°41'0 0.0
2015-Aug-23 10:33N 48°33' W 122°41'0 0.0
2015-Aug-23 09:34N 48°33' W 122°41'0 0.0
2015-Aug-23 08:33N 48°33' W 122°41'0 0.0
2015-Aug-23 07:33N 48°33' W 122°41'0 0.0
2015-Aug-23 06:32N 48°33' W 122°41'0 0.0
2015-Aug-23 05:33N 48°33' W 122°41'0 0.0
2015-Aug-23 04:33N 48°33' W 122°41'0 0.0
2015-Aug-23 03:34N 48°33' W 122°41'0 0.1
2015-Aug-23 02:33N 48°33' W 122°41'7 7.3
2015-Aug-23 01:34N 48°26' W 122°44'15 7.7
2015-Aug-22 23:33N 48°11' W 122°45'10 9.1
2015-Aug-22 22:25N 48°02' W 122°37'8 9.5
2015-Aug-22 21:34N 47°56' W 122°29'9 9.3
2015-Aug-22 20:34N 47°47' W 122°26'9 8.5
2015-Aug-22 19:33N 47°38' W 122°25'2 1.5
2015-Aug-22 18:33N 47°38' W 122°23'0 0.0
2015-Aug-22 17:33N 47°38' W 122°23'0 0.0
2015-Aug-22 16:33N 47°38' W 122°23'0 0.0
2015-Aug-22 15:34N 47°38' W 122°23'0 0.0
2015-Aug-22 14:33N 47°38' W 122°23'0 0.0
2015-Aug-22 13:33N 47°38' W 122°23'0 0.0
2015-Aug-22 12:33N 47°38' W 122°23'0 0.0
2015-Aug-22 11:34N 47°38' W 122°23'0 0.0
2015-Aug-22 10:33N 47°38' W 122°23'0 0.0
2015-Aug-22 09:34N 47°38' W 122°23'0 0.0
2015-Aug-22 08:34N 47°38' W 122°23'0 0.0
2015-Aug-22 07:33N 47°38' W 122°23'0 0.0
2015-Aug-22 06:33N 47°38' W 122°23'0 0.0
2015-Aug-22 05:34N 47°38' W 122°23'0 0.0
2015-Aug-22 04:34N 47°38' W 122°23'0 0.0
2015-Aug-22 03:33N 47°38' W 122°23'0 0.0
2015-Aug-22 02:33N 47°38' W 122°23'0 0.0
2015-Aug-22 01:34N 47°38' W 122°23'0 0.0
2015-Aug-22 00:34N 47°38' W 122°23'0 0.0
2015-Aug-21 23:33N 47°38' W 122°23'0 0.0
2015-Aug-21 22:33N 47°38' W 122°23'0 0.0
2015-Aug-21 21:33N 47°38' W 122°23'0 0.0
2015-Aug-21 20:33N 47°38' W 122°23'0 0.0
2015-Aug-21 19:33N 47°38' W 122°23'0 0.0
2015-Aug-21 18:34N 47°38' W 122°23'0 0.0
2015-Aug-21 17:33N 47°38' W 122°23'0 0.0
2015-Aug-21 16:33N 47°38' W 122°23'0 0.0
2015-Aug-21 15:33N 47°38' W 122°23'0 0.0
2015-Aug-21 14:33N 47°38' W 122°23'0 0.0
2015-Aug-21 13:34N 47°38' W 122°23'0 0.0
2015-Aug-21 12:33N 47°38' W 122°23'0 0.0
2015-Aug-21 11:33N 47°38' W 122°23'0 0.0
2015-Aug-21 10:34N 47°38' W 122°23'0 0.0
2015-Aug-21 09:33N 47°38' W 122°23'0 0.0
2015-Aug-21 08:34N 47°38' W 122°23'0 0.0
2015-Aug-21 07:33N 47°38' W 122°23'5 4.8
2015-Aug-21 06:33N 47°42' W 122°26'8 7.8
2015-Aug-21 05:33N 47°50' W 122°24'8 8.3
2015-Aug-21 04:33N 47°58' W 122°20'8 8.4
2015-Aug-21 03:33N 48°05' W 122°27'14 7.2
2015-Aug-21 01:33N 48°19' W 122°31'9 7.8
2015-Aug-21 00:26N 48°25' W 122°41'7 7.7
2015-Aug-20 23:34N 48°32' W 122°41'1 1.5
2015-Aug-20 22:34N 48°33' W 122°41'0 0.0
2015-Aug-20 21:33N 48°33' W 122°41'0 0.0
2015-Aug-20 20:33N 48°33' W 122°41'0 0.0
2015-Aug-20 19:33N 48°33' W 122°41'0 0.0
2015-Aug-20 18:33N 48°33' W 122°41'0 0.0
2015-Aug-20 17:34N 48°33' W 122°41'0 0.0
2015-Aug-20 16:33N 48°33' W 122°41'0 0.0
2015-Aug-20 15:34N 48°33' W 122°41'0 0.0
2015-Aug-20 14:34N 48°33' W 122°41'0 0.0
2015-Aug-20 13:33N 48°33' W 122°41'0 0.0
2015-Aug-20 12:34N 48°33' W 122°41'0 0.0
2015-Aug-20 11:33N 48°33' W 122°41'  

Dump ship's entire track history